Latest Weather Observations for Sydney Airport

IDN60801

Issued at 6:52 am EST Thursday 20 June 2019 (issued every 10 minutes, with the page automatically refreshed every 10 minutes)

About weather observations | Map of weather stations | Latest weather observations for NSW | Other Formats
Station Details ID: 066037 Name: SYDNEY AIRPORT AMO Lat: -33.95 Lon: 151.17 Height: 6.0 m
Data from the previous 72 hours. | See also: Recent months at Sydney Airport
Date/Time
EST
Temp
°C
App
Temp
°C
Dew
Point
°C
Rel
Hum
%
Delta-T
°C
Wind Press
QNH
hPa
Press
MSL
hPa
Rain since
9am
mm
Dir  Spd
km/h
Gust
km/h
Spd
kts
Gust
kts
20/06:30am 6.8 2.1 3.1 77 1.5 NW 17 22 9 12 1024.5 1024.5 0.0
20/06:00am 6.4 1.7 3.0 79 1.4 NNW 17 20 9 11 1024.3 1024.3 0.0
20/05:30am 6.7 3.6 3.5 80 1.4 NNW 9 13 5 7 1024.0 1024.0 0.0
20/05:00am 6.9 2.7 3.7 80 1.4 NNW 15 17 8 9 1023.7 1023.7 0.0
20/04:30am 6.7 2.8 3.3 79 1.4 NNW 13 17 7 9 1023.6 1023.6 0.0
20/04:00am 6.6 2.6 3.0 78 1.5 NW 13 17 7 9 1023.5 1023.5 0.0
20/03:30am 6.6 2.3 3.2 79 1.4 NW 15 19 8 10 1023.6 1023.6 0.0
20/03:00am 7.0 3.6 3.8 80 1.4 NW 11 13 6 7 1023.7 1023.7 0.0
20/02:30am 6.9 3.4 3.7 80 1.4 NW 11 15 6 8 1023.3 1023.3 0.0
20/02:00am 7.3 3.5 3.7 78 1.5 NW 13 15 7 8 1023.5 1023.5 0.0
20/01:30am 7.7 3.6 4.1 78 1.6 NNW 15 17 8 9 1023.5 1023.5 0.0
20/01:00am 8.1 4.4 4.3 77 1.6 NNW 13 15 7 8 1023.6 1023.6 0.0
20/12:30am 8.4 4.3 4.2 75 1.8 NW 15 17 8 9 1023.7 1023.7 0.0
20/12:00am 8.7 4.9 4.1 73 2.0 N 13 15 7 8 1023.8 1023.8 0.0
 
Date/Time
EST
Temp
°C
App
Temp
°C
Dew
Point
°C
Rel
Hum
%
Delta-T
°C
Wind Press
QNH
hPa
Press
MSL
hPa
Rain since
9am
mm
Dir  Spd
km/h
Gust
km/h
Spd
kts
Gust
kts
19/11:30pm 9.5 6.2 4.5 71 2.2 NW 11 13 6 7 1023.9 1023.9 0.0
19/11:00pm 10.0 5.7 5.2 72 2.2 NW 17 19 9 10 1023.9 1023.9 0.0
19/10:30pm 11.9 8.4 5.5 65 3.0 W 13 15 7 8 1023.9 1023.9 0.0
19/10:00pm 11.7 7.9 5.6 66 2.8 WSW 15 30 8 16 1023.9 1023.9 0.0
19/09:30pm 11.2 7.0 5.7 69 2.5 SW 17 35 9 19 1023.9 1023.9 0.0
19/09:00pm 11.6 7.2 4.8 63 3.1 SW 17 20 9 11 1024.0 1024.0 0.0
19/08:30pm 12.2 7.6 5.8 65 3.0 SW 19 22 10 12 1023.9 1023.9 0.0
19/08:00pm 12.2 8.5 6.3 67 2.8 SW 15 17 8 9 1024.0 1024.0 0.0
19/07:30pm 12.6 9.2 6.0 64 3.1 SSW 13 15 7 8 1023.8 1023.8 0.0
19/07:00pm 12.7 8.6 4.4 57 3.8 SSW 15 28 8 15 1023.5 1023.5 0.0
19/06:30pm 13.6 9.5 4.5 54 4.2 SSW 15 22 8 12 1023.2 1023.2 0.0
19/06:00pm 14.3 9.3 3.7 49 4.8 S 19 22 10 12 1022.8 1022.8 0.0
19/05:30pm 14.2 8.0 4.2 51 4.6 S 26 32 14 17 1022.4 1022.4 0.0
19/05:00pm 14.4 8.4 3.5 48 4.9 S 24 30 13 16 1022.2 1022.2 0.0
19/04:30pm 14.4 8.4 5.2 54 4.3 S 26 32 14 17 1021.9 1021.9 0.0
19/04:00pm 14.6 8.2 5.4 54 4.3 SSW 28 33 15 18 1021.6 1021.6 0.0
19/03:30pm 14.8 8.4 5.3 53 4.5 S 28 37 15 20 1021.4 1021.4 0.0
19/03:00pm 15.3 9.5 6.1 54 4.4 S 26 33 14 18 1021.1 1021.1 0.0
19/02:30pm 15.2 9.2 5.4 52 4.6 S 26 30 14 16 1021.0 1021.0 0.0
19/02:00pm 14.7 8.4 5.5 54 4.3 S 28 33 15 18 1020.8 1020.8 0.0
19/01:30pm 15.2 8.7 6.5 56 4.2 S 30 39 16 21 1020.8 1020.8 0.0
19/01:00pm 15.1 9.4 6.9 58 4.0 SSW 26 33 14 18 1021.2 1021.2 0.0
19/12:30pm 14.8 9.3 7.4 61 3.6 SSW 26 33 14 18 1021.4 1021.4 0.0
19/12:00pm 15.2 10.3 7.0 58 4.0 SSW 22 32 12 17 1021.7 1021.7 0.0
19/11:30am 15.1 9.8 6.9 58 4.0 SSW 24 32 13 17 1021.9 1021.9 0.0
19/11:00am 14.5 10.2 5.3 54 4.3 WSW 17 28 9 15 1022.1 1022.1 0.0
19/10:30am 14.2 9.3 5.0 54 4.3 W 20 28 11 15 1022.3 1022.3 0.0
19/10:00am 13.5 8.5 4.4 54 4.2 W 20 35 11 19 1022.2 1022.2 0.0
19/09:30am 12.3 6.8 4.0 57 3.7 W 22 28 12 15 1021.8 1021.8 0.0
19/09:00am 11.4 5.5 3.9 60 3.3 W 24 32 13 17 1021.6 1021.6 1.8
19/08:30am 10.8 3.8 4.3 64 2.9 W 30 35 16 19 1021.5 1021.5 1.8
19/08:00am 10.2 5.2 4.4 67 2.6 W 20 28 11 15 1021.2 1021.2 1.8
19/07:30am 10.3 4.6 4.7 68 2.5 W 24 30 13 16 1020.9 1020.9 1.8
19/07:00am 9.8 4.1 4.8 71 2.2 W 24 33 13 18 1020.4 1020.4 1.8
19/06:30am 9.9 5.2 5.3 73 2.1 WNW 19 35 10 19 1020.1 1020.1 1.8
19/06:00am 8.7 4.3 4.9 77 1.7 WNW 17 19 9 10 1019.8 1019.8 1.8
19/05:30am 9.0 5.5 5.4 78 1.6 SW 13 17 7 9 1019.4 1019.4 1.8
19/05:00am 9.2 3.9 5.2 76 1.8 W 22 28 12 15 1018.7 1018.7 1.8
19/04:30am 9.5 3.9 5.3 75 1.9 W 24 30 13 16 1018.8 1018.8 1.8
19/04:00am 9.9 3.9 5.3 73 2.1 WNW 26 33 14 18 1018.9 1018.9 1.8
19/03:30am 10.0 4.0 5.4 73 2.1 WNW 26 32 14 17 1018.8 1018.8 1.8
19/03:00am 10.1 4.1 5.3 72 2.2 WNW 26 32 14 17 1018.7 1018.7 1.8
19/02:30am 10.0 4.8 5.4 73 2.1 W 22 28 12 15 1018.8 1018.8 1.8
19/02:00am 10.2 5.0 5.4 72 2.2 W 22 26 12 14 1018.8 1018.8 1.8
19/01:30am 10.5 6.7 5.7 72 2.2 W 15 19 8 10 1018.9 1018.9 1.8
19/01:00am 11.4 6.6 5.7 68 2.6 W 20 26 11 14 1019.0 1019.0 1.8
19/12:30am 11.8 8.8 5.9 67 2.8 W 11 15 6 8 1018.9 1018.9 1.8
19/12:00am 11.8 8.7 5.7 66 2.8 W 11 19 6 10 1018.9 1018.9 1.8
 
Date/Time
EST
Temp
°C
App
Temp
°C
Dew
Point
°C
Rel
Hum
%
Delta-T
°C
Wind Press
QNH
hPa
Press
MSL
hPa
Rain since
9am
mm
Dir  Spd
km/h
Gust
km/h
Spd
kts
Gust
kts
18/11:30pm 12.7 9.3 5.8 63 3.2 W 13 15 7 8 1019.0 1019.0 1.8
18/11:00pm 13.0 8.8 5.9 62 3.3 W 17 19 9 10 1019.2 1019.2 1.8
18/10:30pm 13.6 9.2 6.5 62 3.4 W 19 24 10 13 1019.3 1019.3 1.8
18/10:00pm 13.9 9.3 6.7 62 3.5 WSW 20 30 11 16 1019.2 1019.2 1.8
18/09:30pm 14.3 10.0 7.8 65 3.2 SW 20 24 11 13 1018.9 1018.9 1.8
18/09:00pm 15.0 11.3 7.8 62 3.6 WSW 17 24 9 13 1018.7 1018.7 1.8
18/08:30pm 15.5 12.2 9.6 68 3.1 WSW 17 20 9 11 1018.7 1018.7 1.8
18/08:00pm 15.8 12.0 9.2 65 3.4 W 19 26 10 14 1018.4 1018.4 1.8
18/07:30pm 15.9 12.7 9.8 67 3.2 W 17 20 9 11 1018.3 1018.3 1.8
18/07:00pm 16.1 13.4 10.4 69 3.0 W 15 19 8 10 1018.2 1018.2 1.8
18/06:30pm 16.7 15.1 11.6 72 2.8 WNW 11 17 6 9 1017.8 1017.8 1.8
18/06:00pm 16.3 15.0 11.2 72 2.7 W 9 26 5 14 1017.5 1017.5 1.8
18/05:30pm 17.3 16.5 11.6 69 3.1 WNW 7 13 4 7 1017.4 1017.4 1.8
18/05:00pm 16.8 15.7 10.6 67 3.3 W 7 15 4 8 1017.2 1017.2 1.8
18/04:30pm 16.9 14.9 11.4 70 3.0 WSW 13 30 7 16 1017.1 1017.1 1.8
18/04:00pm 16.8 15.3 11.9 73 2.7 SW 11 24 6 13 1016.9 1016.9 1.8
18/03:30pm 17.2 14.4 11.5 69 3.1 SW 17 28 9 15 1016.6 1016.6 1.8
18/03:00pm 17.3 16.7 13.6 79 2.1 SSE 9 9 5 5 1016.8 1016.8 1.8
18/02:30pm 17.9 16.3 11.7 67 3.4 SSW 11 19 6 10 1016.7 1016.7 1.8
18/02:00pm 18.5 16.4 12.3 67 3.4 WSW 15 17 8 9 1016.9 1016.9 1.6
18/01:30pm 18.5 17.1 12.3 67 3.4 WSW 11 24 6 13 1017.1 1017.1 1.6
18/01:00pm 18.2 16.9 12.6 70 3.1 SW 11 15 6 8 1017.4 1017.4 1.6
18/12:30pm 18.0 17.2 12.9 72 2.9 SW 9 11 5 6 1017.8 1017.8 1.6
18/12:00pm 17.4 16.2 12.7 74 2.6 WSW 11 15 6 8 1018.3 1018.3 1.6
18/11:30am 17.1 15.5 12.8 76 2.4 W 13 17 7 9 1018.7 1018.7 1.6
18/11:00am 16.1 13.7 12.8 81 1.8 W 17 32 9 17 1019.1 1019.1 1.6
18/10:30am 15.2 13.6 12.7 85 1.4 W 13 28 7 15 1019.7 1019.7 1.6
18/10:00am 13.3 11.4 11.7 90 0.9 WNW 13 20 7 11 1020.0 1020.0 1.6
18/09:49am 13.2 10.9 11.6 90 0.9 NW 15 17 8 9 1020.2 1020.2 1.4
18/09:30am 13.6 11.7 11.8 89 1.0 NNW 13 15 7 8 1020.3 1020.3 0.8
18/09:00am 13.7 11.2 11.2 85 1.3 NW 15 17 8 9 1019.8 1019.8 14.2
18/08:30am 12.9 10.6 10.3 84 1.3 NNW 13 15 7 8 1019.6 1019.6 14.2
18/08:00am 12.3 10.0 10.4 88 1.0 WNW 13 19 7 10 1019.4 1019.4 14.2
18/07:30am 11.6 9.0 9.5 87 1.1 NW 13 13 7 7 1019.3 1019.3 14.2
18/07:00am 12.0 9.9 9.9 87 1.1 WNW 11 15 6 8 1019.4 1019.4 14.2
18/06:30am 11.7 9.3 9.9 89 0.9 WNW 13 26 7 14 1019.2 1019.2 14.2
18/06:00am 11.8 9.8 10.2 90 0.8 WNW 11 13 6 7 1019.0 1019.0 14.2
18/05:30am 11.8 9.9 10.5 92 0.7 NW 11 13 6 7 1019.0 1019.0 14.2
18/05:00am 11.6 9.2 10.2 91 0.7 NW 13 15 7 8 1018.9 1018.9 14.2
18/04:30am 11.7 9.8 10.4 92 0.7 WNW 11 13 6 7 1019.0 1019.0 14.2
18/04:00am 11.6 9.6 10.2 91 0.7 W 11 15 6 8 1019.1 1019.1 14.2
18/03:30am 11.8 8.7 10.4 91 0.7 W 17 19 9 10 1019.1 1019.1 14.2
18/03:00am 11.8 9.9 10.4 91 0.7 NW 11 15 6 8 1019.5 1019.5 14.2
18/02:30am 11.8 9.5 10.4 91 0.7 NW 13 15 7 8 1019.5 1019.5 14.2
18/02:00am 11.6 9.3 10.3 92 0.7 NW 13 15 7 8 1019.6 1019.6 14.2
18/01:30am 11.8 10.3 10.4 91 0.7 NW 9 11 5 6 1019.5 1019.5 14.2
18/01:00am 11.8 9.9 10.4 91 0.7 W 11 15 6 8 1019.8 1019.8 14.2
18/12:30am 11.9 9.2 10.5 91 0.7 W 15 17 8 9 1019.8 1019.8 14.2
18/12:00am 12.1 9.8 10.3 89 0.9 NNE 13 20 7 11 1020.1 1020.1 14.2
 
Date/Time
EST
Temp
°C
App
Temp
°C
Dew
Point
°C
Rel
Hum
%
Delta-T
°C
Wind Press
QNH
hPa
Press
MSL
hPa
Rain since
9am
mm
Dir  Spd
km/h
Gust
km/h
Spd
kts
Gust
kts
17/11:30pm 12.4 10.1 10.3 87 1.1 WNW 13 17 7 9 1020.3 1020.3 14.0
17/11:00pm 12.4 10.0 10.1 86 1.2 WNW 13 17 7 9 1020.6 1020.6 14.0
17/10:30pm 12.9 10.3 10.8 87 1.1 W 15 17 8 9 1020.8 1020.8 14.0
17/10:00pm 12.9 9.9 10.8 87 1.1 W 17 19 9 10 1020.8 1020.8 14.0
17/09:30pm 14.1 11.7 11.4 84 1.4 WSW 15 33 8 18 1021.0 1021.0 14.0
17/09:00pm 13.8 10.9 11.1 84 1.4 WSW 17 20 9 11 1020.9 1020.9 14.0
17/08:30pm 14.0 10.2 11.3 84 1.4 SW 22 28 12 15 1020.9 1020.9 14.0
17/08:00pm 14.0 9.9 11.5 85 1.3 SSW 24 33 13 18 1020.7 1020.7 14.0
17/07:30pm 14.2 8.9 11.4 83 1.5 SSW 30 39 16 21 1020.9 1020.9 14.0
17/07:00pm 14.4 9.7 11.9 85 1.3 SSW 28 37 15 20 1020.4 1020.4 14.0
17/06:30pm 14.5 10.5 11.8 84 1.5 SW 24 37 13 20 1020.2 1020.2 14.0
17/06:00pm 14.7 10.4 12.0 84 1.5 SW 26 33 14 18 1020.2 1020.2 14.0
17/05:30pm 14.6 9.2 12.3 86 1.3 SSW 32 37 17 20 1019.9 1019.9 14.0
17/05:00pm 14.7 8.8 12.4 86 1.2 SSW 35 44 19 24 1019.5 1019.5 14.0
17/04:30pm 14.6 8.4 12.6 88 1.1 SSW 37 44 20 24 1019.2 1019.2 13.8
17/04:00pm 14.5 8.5 13.2 92 0.7 SW 37 46 20 25 1019.1 1019.1 13.8
17/03:30pm 14.5 9.4 13.0 91 0.8 SSW 32 43 17 23 1019.0 1019.0 13.4
17/03:00pm 14.8 9.2 13.2 90 0.9 SSW 35 41 19 22 1018.7 1018.7 13.4
17/02:43pm 14.3 8.7 13.2 93 0.6 SW 35 46 19 25 1018.6 1018.6 13.4
17/02:30pm 13.8 10.5 12.9 94 0.5 SW 22 35 12 19 1018.6 1018.6 13.2
17/02:00pm 13.9 11.2 13.0 94 0.5 SW 19 30 10 16 1018.6 1018.6 10.6
17/01:51pm 14.1 11.3 13.1 94 0.6 SSW 20 33 11 18 1018.9 1018.9 9.0
17/01:30pm 14.3 10.4 13.2 93 0.6 SSW 26 37 14 20 1018.6 1018.6 5.4
17/01:16pm 14.3 9.0 13.0 92 0.7 SSW 33 43 18 23 1018.7 1018.7 4.6
17/01:00pm 14.6 10.8 13.5 93 0.6 SSW 26 37 14 20 1018.7 1018.7 4.2
17/12:41pm 14.3 11.1 13.0 92 0.7 SSW 22 32 12 17 1019.1 1019.1 4.0
17/12:30pm 14.4 11.7 13.0 91 0.8 S 19 30 10 16 1019.3 1019.3 3.8
17/12:14pm 14.6 9.4 12.8 89 1.0 SSW 32 41 17 22 1019.3 1019.3 2.0
17/12:00pm 15.2 10.0 12.9 86 1.3 SSW 32 44 17 24 1019.3 1019.3 1.4
17/11:30am 14.9 9.0 12.4 85 1.4 SSW 35 50 19 27 1019.1 1019.1 1.2
17/11:00am 14.9 8.4 12.8 87 1.2 SSW 39 50 21 27 1019.4 1019.4 1.2
17/10:30am 14.4 9.1 13.1 92 0.7 SSW 33 41 18 22 1019.9 1019.9 1.2
17/10:10am 13.5 8.0 12.4 93 0.6 SW 33 41 18 22 1019.8 1019.8 1.2
17/10:00am 13.2 7.6 12.1 93 0.6 SW 33 41 18 22 1019.8 1019.8 1.2
17/09:57am 13.5 8.0 12.4 93 0.6 SW 33 41 18 22 1019.8 1019.8 1.0
17/09:30am 13.5 8.1 12.1 91 0.8 SW 32 41 17 22 1020.0 1020.0 0.2
17/09:00am 13.1 7.6 12.0 93 0.6 SSW 32 39 17 21 1019.9 1019.9 25.8
17/08:30am 12.3 8.1 11.0 92 0.7 WSW 24 32 13 17 1019.7 1019.7 25.6
17/08:00am 12.5 9.0 10.9 90 0.8 W 20 24 11 13 1019.7 1019.7 24.8
17/07:30am 12.1 8.7 10.7 91 0.7 WSW 19 24 10 13 1019.7 1019.7 24.8
17/07:00am 12.1 9.5 10.7 91 0.7 WSW 15 19 8 10 1019.6 1019.6 24.8

Other formats

Comma delimited format used in spreadsheet applications
http://www.bom.gov.au/fwo/IDN60801/IDN60801.94767.axf

JavaScript Object Notation format (JSON) in row-major order
http://www.bom.gov.au/fwo/IDN60801/IDN60801.94767.json

Data quality

Most of these data are generated automatically and are frequently updated. Quality checks on data are not normally performed. It is possible for incorrect values to appear. Refer to information at About Latest Weather Observations and please check the disclaimer before using these data.